»·PEaware :: AAL21 KSJC-KPSP

AAL21 :: KSJC-KPSP

FLIGHT INFORMATION

Flight Status: Arrived
Operator:
American Airlines
More flights by this operator :: More flights under this callsign
Pilot: Ben F. (13029)
Aircraft: BOEING 737-300
(B733)
More flights by this aircraft type
Origin: KSJC Mineta San Jose Intl
United States
Destination: KPSP Palm Springs Intl
United States
More flights between these airports :: More routes between these airports
Route: +TECKY3 EBAYE CLASN SIZLR3
File this flight plan on PilotEdge
Remarks: PBN / A1B3B4B5D3D4 DOF / 190119 REG / N372SB EET / KZAK0017 KZLA0027 OPR / AAL PER / C RMK / TCAS SIMBRIEF
Altitude:
(Current/Filed)
35,000ft
Speed:
(Current/Filed)
423kts
Departed: 19-Jan-19 12:21 PM
Arrived: 19-Jan-19 01:30 PM
Distance/Time
Traveled:
339nm/1:09
Distance/Time
To Go:
Arrived

Flight Plot

Page will automatically refresh every two minutes.

Flight plan parsing failed; only flown route is shown


Map Options




Map Legend


Flown Route
Filed Route
Departure Airport
Arrival Airport
Navaid (VOR, NDB)
Fix

Horizontal Profiles

Position Reports

Time Latitude Longitude Heading Altitude Ground
Speed
19-Jan-19 11:54 37.368134 -121.929202 48 44ft 0kts
19-Jan-19 11:56 37.368134 -121.929202 48 44ft 0kts
19-Jan-19 11:57 37.368134 -121.929202 48 44ft 0kts
19-Jan-19 11:58 37.368134 -121.929202 48 44ft 0kts
19-Jan-19 11:59 37.368134 -121.929202 48 44ft 0kts
19-Jan-19 12:00 37.368134 -121.929202 48 44ft 0kts
19-Jan-19 12:01 37.368134 -121.929202 48 44ft 0kts
19-Jan-19 12:02 37.368134 -121.929202 48 44ft 0kts
19-Jan-19 12:03 37.368134 -121.929202 48 44ft 0kts
19-Jan-19 12:04 37.368134 -121.929202 48 44ft 0kts
19-Jan-19 12:05 37.368134 -121.929202 48 44ft 0kts
19-Jan-19 12:06 37.368134 -121.929202 48 44ft 0kts
19-Jan-19 12:07 37.368134 -121.929202 48 44ft 0kts
19-Jan-19 12:08 37.368134 -121.929202 48 44ft 0kts
19-Jan-19 12:09 37.368134 -121.929202 48 44ft 0kts
19-Jan-19 12:10 37.368134 -121.929202 48 44ft 0kts
19-Jan-19 12:11 37.367986 -121.929748 134 44ft 0kts
19-Jan-19 12:11 37.368050 -121.929813 138 44ft 0kts
19-Jan-19 12:13 37.368050 -121.929813 138 44ft 0kts
19-Jan-19 12:14 37.367954 -121.929723 147 44ft 2kts
19-Jan-19 12:14 37.366118 -121.927849 141 46ft 13kts
19-Jan-19 12:16 37.362367 -121.923756 139 52ft 15kts
19-Jan-19 12:17 37.359016 -121.920084 138 55ft 17kts
19-Jan-19 12:17 37.356056 -121.916816 139 61ft 16kts
19-Jan-19 12:19 37.352987 -121.914559 230 64ft 0kts
19-Jan-19 12:19 37.352761 -121.914902 230 64ft 8kts
19-Jan-19 12:20 37.363629 -121.927691 317 88ft 147kts
19-Jan-19 12:21 37.395055 -121.965043 317 2022ft 165kts
19-Jan-19 12:22 37.436247 -121.967988 46 3632ft 170kts
19-Jan-19 12:23 37.437321 -121.915715 139 5439ft 168kts
19-Jan-19 12:24 37.396764 -121.868018 140 7286ft 217kts
19-Jan-19 12:25 37.352005 -121.815370 141 10006ft 218kts
19-Jan-19 12:26 37.309196 -121.765931 143 11879ft 237kts
19-Jan-19 12:27 37.252133 -121.701220 141 12566ft 302kts
19-Jan-19 12:28 37.188470 -121.628970 142 14837ft 316kts
19-Jan-19 12:29 37.122006 -121.553813 143 17296ft 330kts
19-Jan-19 12:30 37.052296 -121.475859 145 19089ft 341kts
19-Jan-19 12:31 36.975265 -121.393888 143 19757ft 392kts
19-Jan-19 12:32 36.890732 -121.303538 144 21575ft 409kts
19-Jan-19 12:33 36.803179 -121.210641 144 23542ft 422kts
19-Jan-19 12:34 36.711984 -121.114059 144 25173ft 440kts
19-Jan-19 12:35 36.617343 -121.014134 143 26684ft 456kts
19-Jan-19 12:36 36.517659 -120.912866 144 28154ft 469kts
19-Jan-19 12:37 36.416782 -120.810359 145 30087ft 467kts
19-Jan-19 12:38 36.316896 -120.709233 145 31736ft 466kts
19-Jan-19 12:39 36.216732 -120.608162 146 33240ft 464kts
19-Jan-19 12:40 36.117005 -120.507927 146 34543ft 462kts
19-Jan-19 12:41 36.017515 -120.408250 146 35060ft 461kts
19-Jan-19 12:42 35.918794 -120.309451 147 35024ft 457kts
19-Jan-19 12:43 35.831140 -120.195893 127 35048ft 471kts
19-Jan-19 12:44 35.758371 -120.063388 128 35045ft 469kts
19-Jan-19 12:45 35.684300 -119.931617 128 35042ft 470kts
19-Jan-19 12:46 35.610201 -119.800224 128 35045ft 469kts
19-Jan-19 12:47 35.535669 -119.668567 128 35048ft 470kts
19-Jan-19 12:48 35.461229 -119.537562 128 35047ft 469kts
19-Jan-19 12:49 35.386557 -119.406649 128 35042ft 469kts
19-Jan-19 12:50 35.312954 -119.277817 129 35036ft 468kts
19-Jan-19 12:51 35.237908 -119.147163 129 35039ft 469kts
19-Jan-19 12:52 35.162951 -119.017211 129 35038ft 469kts
19-Jan-19 12:53 35.110643 -118.927484 129 35031ft 472kts
19-Jan-19 12:54 35.042876 -118.813217 127 35027ft 474kts
19-Jan-19 12:55 34.970440 -118.679206 125 35033ft 473kts
19-Jan-19 12:56 34.897662 -118.546860 124 32943ft 473kts
19-Jan-19 12:57 34.834455 -118.432968 123 30661ft 467kts
19-Jan-19 12:58 34.761654 -118.305857 128 27609ft 469kts
19-Jan-19 12:59 34.681798 -118.182793 127 24777ft 455kts
19-Jan-19 13:00 34.610821 -118.073096 127 23825ft 383kts
19-Jan-19 13:01 34.555473 -117.967526 113 21434ft 363kts
19-Jan-19 13:02 34.512190 -117.860653 114 20007ft 353kts
19-Jan-19 13:03 34.468539 -117.754121 114 20010ft 353kts
19-Jan-19 13:04 34.424904 -117.647832 114 20081ft 353kts
19-Jan-19 13:05 34.381899 -117.542557 114 18671ft 343kts
19-Jan-19 13:06 34.340432 -117.441209 114 16902ft 331kts
19-Jan-19 13:07 34.300645 -117.344406 116 15996ft 325kts
19-Jan-19 13:08 34.256201 -117.248613 118 16024ft 316kts
19-Jan-19 13:09 34.215881 -117.162605 117 15981ft 290kts
19-Jan-19 13:10 34.177173 -117.080070 117 15990ft 278kts
19-Jan-19 13:11 34.139170 -116.999188 116 15993ft 277kts
19-Jan-19 13:12 34.101407 -116.918875 116 15480ft 273kts
19-Jan-19 13:13 34.065064 -116.841144 116 14141ft 262kts
19-Jan-19 13:14 34.030032 -116.765735 115 12803ft 257kts
19-Jan-19 13:15 33.996910 -116.691498 115 11444ft 249kts
19-Jan-19 13:16 33.965272 -116.619639 115 10155ft 234kts
19-Jan-19 13:17 33.934931 -116.549687 115 8333ft 239kts
19-Jan-19 13:18 33.906999 -116.484497 115 7829ft 211kts
19-Jan-19 13:19 33.880016 -116.421580 115 6429ft 210kts
19-Jan-19 13:20 33.854518 -116.361872 115 6043ft 198kts
19-Jan-19 13:21 33.828504 -116.303112 133 6085ft 197kts
19-Jan-19 13:22 33.775298 -116.299639 206 5303ft 195kts
19-Jan-19 13:23 33.728282 -116.323055 197 4588ft 175kts
19-Jan-19 13:24 33.695968 -116.355402 273 4564ft 173kts
19-Jan-19 13:25 33.716878 -116.404102 319 4292ft 181kts
19-Jan-19 13:26 33.753637 -116.439466 323 3100ft 156kts
19-Jan-19 13:27 33.788582 -116.470927 323 1774ft 157kts
19-Jan-19 13:28 33.822058 -116.500853 323 453ft 140kts
19-Jan-19 13:29 33.836239 -116.514753 208 429ft 13kts
19-Jan-19 13:30 33.835096 -116.514595 144 429ft 12kts
19-Jan-19 13:31 33.831438 -116.511362 143 429ft 20kts
19-Jan-19 13:32 33.826666 -116.507013 148 429ft 11kts
19-Jan-19 13:33 33.823794 -116.506962 170 429ft 3kts
19-Jan-19 13:34 33.823714 -116.506945 170 429ft 0kts
19-Jan-19 13:35 33.823714 -116.506945 170 429ft 0kts
19-Jan-19 13:36 33.823714 -116.506945 170 429ft 0kts
19-Jan-19 13:37 33.823714 -116.506945 170 429ft 0kts

Navigation Log

Ident Type
Flight plan parsing failed, navigation log unavailable